sensor_id;sensor_type;location;lat;lon;timestamp;P1;durP1;ratioP1;P2;durP2;ratioP2
9904;SDS011;4991;43.566;27.820;2022-10-10T00:00:33;15.87;;;11.73;;
9904;SDS011;4991;43.566;27.820;2022-10-10T00:02:59;17.63;;;11.80;;
9904;SDS011;4991;43.566;27.820;2022-10-10T00:05:25;20.90;;;12.73;;
9904;SDS011;4991;43.566;27.820;2022-10-10T00:07:50;19.63;;;13.37;;
9904;SDS011;4991;43.566;27.820;2022-10-10T00:10:16;16.87;;;12.13;;
9904;SDS011;4991;43.566;27.820;2022-10-10T00:12:41;23.87;;;12.63;;
9904;SDS011;4991;43.566;27.820;2022-10-10T00:15:08;16.90;;;12.20;;
9904;SDS011;4991;43.566;27.820;2022-10-10T00:17:35;21.03;;;13.00;;
9904;SDS011;4991;43.566;27.820;2022-10-10T00:20:00;14.30;;;11.20;;
9904;SDS011;4991;43.566;27.820;2022-10-10T00:22:26;19.87;;;12.30;;
9904;SDS011;4991;43.566;27.820;2022-10-10T00:24:52;17.87;;;12.80;;
9904;SDS011;4991;43.566;27.820;2022-10-10T00:27:17;15.43;;;11.77;;
9904;SDS011;4991;43.566;27.820;2022-10-10T00:29:43;15.73;;;12.53;;
9904;SDS011;4991;43.566;27.820;2022-10-10T00:32:09;15.20;;;12.57;;
9904;SDS011;4991;43.566;27.820;2022-10-10T00:34:34;17.07;;;12.33;;
9904;SDS011;4991;43.566;27.820;2022-10-10T00:37:00;17.93;;;11.87;;
9904;SDS011;4991;43.566;27.820;2022-10-10T00:39:25;19.33;;;12.80;;
9904;SDS011;4991;43.566;27.820;2022-10-10T00:41:51;17.33;;;12.27;;
9904;SDS011;4991;43.566;27.820;2022-10-10T00:44:17;14.33;;;12.30;;
9904;SDS011;4991;43.566;27.820;2022-10-10T00:46:43;16.20;;;12.60;;
9904;SDS011;4991;43.566;27.820;2022-10-10T00:49:10;17.40;;;13.47;;
9904;SDS011;4991;43.566;27.820;2022-10-10T00:51:39;14.37;;;12.27;;
9904;SDS011;4991;43.566;27.820;2022-10-10T00:54:07;15.10;;;12.27;;
9904;SDS011;4991;43.566;27.820;2022-10-10T00:56:40;16.27;;;12.60;;
9904;SDS011;4991;43.566;27.820;2022-10-10T00:59:12;17.30;;;12.53;;
9904;SDS011;4991;43.566;27.820;2022-10-10T01:01:40;16.50;;;13.17;;
9904;SDS011;4991;43.566;27.820;2022-10-10T01:04:06;16.50;;;13.63;;
9904;SDS011;4991;43.566;27.820;2022-10-10T01:06:51;19.13;;;13.33;;
9904;SDS011;4991;43.566;27.820;2022-10-10T01:09:17;18.17;;;13.80;;
9904;SDS011;4991;43.566;27.820;2022-10-10T01:11:54;18.73;;;14.83;;
9904;SDS011;4991;43.566;27.820;2022-10-10T01:14:37;20.57;;;14.47;;
9904;SDS011;4991;43.566;27.820;2022-10-10T01:17:31;20.60;;;14.00;;
9904;SDS011;4991;43.566;27.820;2022-10-10T01:23:04;18.83;;;16.07;;
9904;SDS011;4991;43.566;27.820;2022-10-10T01:31:04;19.30;;;15.03;;
9904;SDS011;4991;43.566;27.820;2022-10-10T01:33:37;19.57;;;13.43;;
9904;SDS011;4991;43.566;27.820;2022-10-10T01:36:21;17.77;;;14.07;;
9904;SDS011;4991;43.566;27.820;2022-10-10T01:39:08;20.20;;;14.80;;
9904;SDS011;4991;43.566;27.820;2022-10-10T01:41:46;19.77;;;14.40;;
9904;SDS011;4991;43.566;27.820;2022-10-10T01:44:15;18.43;;;14.47;;
9904;SDS011;4991;43.566;27.820;2022-10-10T01:46:41;17.83;;;14.50;;
9904;SDS011;4991;43.566;27.820;2022-10-10T01:49:07;19.93;;;14.90;;
9904;SDS011;4991;43.566;27.820;2022-10-10T02:02:56;18.20;;;12.50;;
9904;SDS011;4991;43.566;27.820;2022-10-10T02:08:23;15.33;;;11.63;;
9904;SDS011;4991;43.566;27.820;2022-10-10T02:11:05;18.17;;;13.63;;
9904;SDS011;4991;43.566;27.820;2022-10-10T02:13:35;23.90;;;13.17;;
9904;SDS011;4991;43.566;27.820;2022-10-10T02:16:10;16.03;;;12.10;;
9904;SDS011;4991;43.566;27.820;2022-10-10T02:18:40;17.43;;;12.90;;
9904;SDS011;4991;43.566;27.820;2022-10-10T02:21:09;15.73;;;11.80;;
9904;SDS011;4991;43.566;27.820;2022-10-10T02:23:38;20.73;;;13.23;;
9904;SDS011;4991;43.566;27.820;2022-10-10T02:26:06;30.80;;;12.20;;
9904;SDS011;4991;43.566;27.820;2022-10-10T02:28:46;16.33;;;12.63;;
9904;SDS011;4991;43.566;27.820;2022-10-10T02:31:20;13.90;;;11.10;;
9904;SDS011;4991;43.566;27.820;2022-10-10T02:33:53;13.80;;;10.97;;
9904;SDS011;4991;43.566;27.820;2022-10-10T02:36:25;16.10;;;10.57;;
9904;SDS011;4991;43.566;27.820;2022-10-10T02:38:53;14.70;;;11.77;;
9904;SDS011;4991;43.566;27.820;2022-10-10T02:41:20;12.83;;;10.67;;
9904;SDS011;4991;43.566;27.820;2022-10-10T02:43:46;17.67;;;11.33;;
9904;SDS011;4991;43.566;27.820;2022-10-10T02:46:15;13.83;;;11.07;;
9904;SDS011;4991;43.566;27.820;2022-10-10T02:48:41;14.67;;;11.40;;
9904;SDS011;4991;43.566;27.820;2022-10-10T02:51:07;13.90;;;11.43;;
9904;SDS011;4991;43.566;27.820;2022-10-10T02:53:34;14.37;;;10.80;;
9904;SDS011;4991;43.566;27.820;2022-10-10T02:56:01;13.90;;;11.57;;
9904;SDS011;4991;43.566;27.820;2022-10-10T02:58:27;12.43;;;11.10;;
9904;SDS011;4991;43.566;27.820;2022-10-10T03:00:53;12.27;;;10.70;;
9904;SDS011;4991;43.566;27.820;2022-10-10T03:03:18;17.87;;;12.07;;
9904;SDS011;4991;43.566;27.820;2022-10-10T03:05:44;16.13;;;11.97;;
9904;SDS011;4991;43.566;27.820;2022-10-10T03:08:10;12.33;;;10.20;;
9904;SDS011;4991;43.566;27.820;2022-10-10T03:10:37;15.10;;;10.73;;
9904;SDS011;4991;43.566;27.820;2022-10-10T03:13:03;14.83;;;10.53;;
9904;SDS011;4991;43.566;27.820;2022-10-10T03:15:29;16.97;;;11.70;;
9904;SDS011;4991;43.566;27.820;2022-10-10T03:17:54;12.27;;;10.93;;
9904;SDS011;4991;43.566;27.820;2022-10-10T03:20:20;14.97;;;11.40;;
9904;SDS011;4991;43.566;27.820;2022-10-10T03:22:46;13.27;;;10.87;;
9904;SDS011;4991;43.566;27.820;2022-10-10T03:25:11;14.63;;;10.70;;
9904;SDS011;4991;43.566;27.820;2022-10-10T03:27:37;16.33;;;11.70;;
9904;SDS011;4991;43.566;27.820;2022-10-10T03:30:03;15.47;;;11.47;;
9904;SDS011;4991;43.566;27.820;2022-10-10T03:32:29;15.17;;;11.60;;
9904;SDS011;4991;43.566;27.820;2022-10-10T03:34:55;14.23;;;11.83;;
9904;SDS011;4991;43.566;27.820;2022-10-10T03:37:20;14.00;;;10.50;;
9904;SDS011;4991;43.566;27.820;2022-10-10T03:39:46;13.07;;;10.73;;
9904;SDS011;4991;43.566;27.820;2022-10-10T03:42:11;12.03;;;10.40;;
9904;SDS011;4991;43.566;27.820;2022-10-10T03:44:37;12.87;;;9.77;;
9904;SDS011;4991;43.566;27.820;2022-10-10T03:47:03;11.70;;;9.60;;
9904;SDS011;4991;43.566;27.820;2022-10-10T03:49:28;18.43;;;10.57;;
9904;SDS011;4991;43.566;27.820;2022-10-10T03:51:54;13.40;;;10.00;;
9904;SDS011;4991;43.566;27.820;2022-10-10T03:54:19;14.70;;;10.53;;
9904;SDS011;4991;43.566;27.820;2022-10-10T03:56:46;14.00;;;10.17;;
9904;SDS011;4991;43.566;27.820;2022-10-10T03:59:12;16.00;;;11.17;;
9904;SDS011;4991;43.566;27.820;2022-10-10T04:01:37;12.63;;;9.43;;
9904;SDS011;4991;43.566;27.820;2022-10-10T04:04:03;12.83;;;10.13;;
9904;SDS011;4991;43.566;27.820;2022-10-10T04:06:29;18.87;;;10.97;;
9904;SDS011;4991;43.566;27.820;2022-10-10T04:08:55;14.07;;;9.63;;
9904;SDS011;4991;43.566;27.820;2022-10-10T04:11:20;12.00;;;10.37;;
9904;SDS011;4991;43.566;27.820;2022-10-10T04:13:46;12.17;;;9.60;;
9904;SDS011;4991;43.566;27.820;2022-10-10T04:16:12;13.67;;;9.30;;
9904;SDS011;4991;43.566;27.820;2022-10-10T04:18:37;12.93;;;9.63;;
9904;SDS011;4991;43.566;27.820;2022-10-10T04:21:03;18.93;;;9.63;;
9904;SDS011;4991;43.566;27.820;2022-10-10T04:23:30;10.00;;;7.97;;
9904;SDS011;4991;43.566;27.820;2022-10-10T04:25:56;12.23;;;8.80;;
9904;SDS011;4991;43.566;27.820;2022-10-10T04:28:21;12.57;;;8.93;;
9904;SDS011;4991;43.566;27.820;2022-10-10T04:30:47;11.63;;;9.00;;
9904;SDS011;4991;43.566;27.820;2022-10-10T04:33:13;13.83;;;9.87;;
9904;SDS011;4991;43.566;27.820;2022-10-10T04:35:38;11.90;;;8.50;;
9904;SDS011;4991;43.566;27.820;2022-10-10T04:38:04;11.63;;;9.23;;
9904;SDS011;4991;43.566;27.820;2022-10-10T04:40:30;14.53;;;9.60;;
9904;SDS011;4991;43.566;27.820;2022-10-10T04:42:56;14.93;;;9.93;;
9904;SDS011;4991;43.566;27.820;2022-10-10T04:45:22;14.57;;;9.90;;
9904;SDS011;4991;43.566;27.820;2022-10-10T04:47:53;13.70;;;9.73;;
9904;SDS011;4991;43.566;27.820;2022-10-10T04:50:20;11.50;;;9.07;;
9904;SDS011;4991;43.566;27.820;2022-10-10T04:52:46;14.93;;;9.70;;
9904;SDS011;4991;43.566;27.820;2022-10-10T04:55:11;22.10;;;10.67;;
9904;SDS011;4991;43.566;27.820;2022-10-10T04:57:37;11.90;;;9.20;;
9904;SDS011;4991;43.566;27.820;2022-10-10T05:00:03;12.60;;;9.90;;
9904;SDS011;4991;43.566;27.820;2022-10-10T05:02:30;16.50;;;8.97;;
9904;SDS011;4991;43.566;27.820;2022-10-10T05:04:56;17.77;;;9.23;;
9904;SDS011;4991;43.566;27.820;2022-10-10T05:07:22;11.17;;;8.87;;
9904;SDS011;4991;43.566;27.820;2022-10-10T05:09:48;10.80;;;8.43;;
9904;SDS011;4991;43.566;27.820;2022-10-10T05:12:14;12.67;;;9.27;;
9904;SDS011;4991;43.566;27.820;2022-10-10T05:14:40;12.70;;;8.53;;
9904;SDS011;4991;43.566;27.820;2022-10-10T05:17:06;13.20;;;8.10;;
9904;SDS011;4991;43.566;27.820;2022-10-10T05:19:33;10.43;;;7.83;;
9904;SDS011;4991;43.566;27.820;2022-10-10T05:21:58;13.83;;;8.60;;
9904;SDS011;4991;43.566;27.820;2022-10-10T05:24:24;11.07;;;8.50;;
9904;SDS011;4991;43.566;27.820;2022-10-10T05:26:50;9.63;;;8.57;;
9904;SDS011;4991;43.566;27.820;2022-10-10T05:29:15;9.77;;;8.70;;
9904;SDS011;4991;43.566;27.820;2022-10-10T05:31:41;12.90;;;8.20;;
9904;SDS011;4991;43.566;27.820;2022-10-10T05:34:08;13.97;;;8.90;;
9904;SDS011;4991;43.566;27.820;2022-10-10T05:36:37;17.63;;;9.30;;
9904;SDS011;4991;43.566;27.820;2022-10-10T05:39:03;10.23;;;7.57;;
9904;SDS011;4991;43.566;27.820;2022-10-10T05:41:30;13.53;;;8.53;;
9904;SDS011;4991;43.566;27.820;2022-10-10T05:43:55;17.00;;;9.43;;
9904;SDS011;4991;43.566;27.820;2022-10-10T05:46:21;12.57;;;8.43;;
9904;SDS011;4991;43.566;27.820;2022-10-10T05:48:49;11.03;;;8.10;;
9904;SDS011;4991;43.566;27.820;2022-10-10T05:51:14;8.87;;;6.40;;
9904;SDS011;4991;43.566;27.820;2022-10-10T05:53:40;9.40;;;6.93;;
9904;SDS011;4991;43.566;27.820;2022-10-10T05:56:06;10.43;;;6.63;;
9904;SDS011;4991;43.566;27.820;2022-10-10T05:58:32;13.10;;;6.43;;
9904;SDS011;4991;43.566;27.820;2022-10-10T06:01:03;9.87;;;6.50;;
9904;SDS011;4991;43.566;27.820;2022-10-10T06:03:30;8.43;;;6.10;;
9904;SDS011;4991;43.566;27.820;2022-10-10T06:05:56;9.73;;;5.53;;
9904;SDS011;4991;43.566;27.820;2022-10-10T06:08:22;10.57;;;5.97;;
9904;SDS011;4991;43.566;27.820;2022-10-10T06:10:50;6.20;;;5.60;;
9904;SDS011;4991;43.566;27.820;2022-10-10T06:13:16;10.43;;;4.80;;
9904;SDS011;4991;43.566;27.820;2022-10-10T06:15:43;6.87;;;5.03;;
9904;SDS011;4991;43.566;27.820;2022-10-10T06:18:08;10.67;;;5.67;;
9904;SDS011;4991;43.566;27.820;2022-10-10T06:20:38;8.33;;;4.90;;
9904;SDS011;4991;43.566;27.820;2022-10-10T06:23:05;4.90;;;3.70;;
9904;SDS011;4991;43.566;27.820;2022-10-10T06:25:32;9.50;;;4.10;;
9904;SDS011;4991;43.566;27.820;2022-10-10T06:27:59;13.00;;;4.40;;
9904;SDS011;4991;43.566;27.820;2022-10-10T06:30:25;6.83;;;3.63;;
9904;SDS011;4991;43.566;27.820;2022-10-10T06:32:51;6.27;;;3.73;;
9904;SDS011;4991;43.566;27.820;2022-10-10T06:35:17;14.87;;;3.80;;
9904;SDS011;4991;43.566;27.820;2022-10-10T06:37:43;7.33;;;4.53;;
9904;SDS011;4991;43.566;27.820;2022-10-10T06:40:09;10.80;;;6.10;;
9904;SDS011;4991;43.566;27.820;2022-10-10T06:42:35;6.97;;;4.43;;
9904;SDS011;4991;43.566;27.820;2022-10-10T06:45:01;13.03;;;5.50;;
9904;SDS011;4991;43.566;27.820;2022-10-10T06:47:28;10.60;;;5.57;;
9904;SDS011;4991;43.566;27.820;2022-10-10T06:49:54;14.40;;;5.07;;
9904;SDS011;4991;43.566;27.820;2022-10-10T06:52:20;5.43;;;4.00;;
9904;SDS011;4991;43.566;27.820;2022-10-10T06:54:45;9.97;;;3.93;;
9904;SDS011;4991;43.566;27.820;2022-10-10T06:57:11;5.63;;;3.50;;
9904;SDS011;4991;43.566;27.820;2022-10-10T06:59:37;5.80;;;3.30;;
9904;SDS011;4991;43.566;27.820;2022-10-10T07:02:02;7.07;;;3.07;;
9904;SDS011;4991;43.566;27.820;2022-10-10T07:04:28;7.40;;;3.93;;
9904;SDS011;4991;43.566;27.820;2022-10-10T07:06:53;4.00;;;3.17;;
9904;SDS011;4991;43.566;27.820;2022-10-10T07:09:19;3.17;;;2.60;;
9904;SDS011;4991;43.566;27.820;2022-10-10T07:11:45;4.10;;;2.90;;
9904;SDS011;4991;43.566;27.820;2022-10-10T07:14:11;4.50;;;3.03;;
9904;SDS011;4991;43.566;27.820;2022-10-10T07:16:37;4.27;;;2.43;;
9904;SDS011;4991;43.566;27.820;2022-10-10T07:19:03;5.17;;;2.50;;
9904;SDS011;4991;43.566;27.820;2022-10-10T07:21:29;5.47;;;2.47;;
9904;SDS011;4991;43.566;27.820;2022-10-10T07:23:57;2.90;;;2.57;;
9904;SDS011;4991;43.566;27.820;2022-10-10T07:26:23;4.63;;;2.33;;
9904;SDS011;4991;43.566;27.820;2022-10-10T07:28:52;6.47;;;3.50;;
9904;SDS011;4991;43.566;27.820;2022-10-10T07:31:18;3.27;;;1.90;;
9904;SDS011;4991;43.566;27.820;2022-10-10T07:33:44;4.57;;;2.10;;
9904;SDS011;4991;43.566;27.820;2022-10-10T07:36:12;3.37;;;2.03;;
9904;SDS011;4991;43.566;27.820;2022-10-10T07:38:38;6.80;;;2.50;;
9904;SDS011;4991;43.566;27.820;2022-10-10T07:41:08;4.83;;;1.90;;
9904;SDS011;4991;43.566;27.820;2022-10-10T07:43:36;5.77;;;2.70;;
9904;SDS011;4991;43.566;27.820;2022-10-10T07:46:03;9.17;;;3.13;;
9904;SDS011;4991;43.566;27.820;2022-10-10T07:48:30;5.97;;;2.53;;
9904;SDS011;4991;43.566;27.820;2022-10-10T07:50:56;6.83;;;2.50;;
9904;SDS011;4991;43.566;27.820;2022-10-10T07:53:22;3.67;;;1.83;;
9904;SDS011;4991;43.566;27.820;2022-10-10T07:55:48;9.40;;;2.37;;
9904;SDS011;4991;43.566;27.820;2022-10-10T07:58:14;6.80;;;2.33;;
9904;SDS011;4991;43.566;27.820;2022-10-10T08:00:40;3.47;;;2.40;;
9904;SDS011;4991;43.566;27.820;2022-10-10T08:03:07;5.23;;;2.27;;
9904;SDS011;4991;43.566;27.820;2022-10-10T08:05:33;6.40;;;2.47;;
9904;SDS011;4991;43.566;27.820;2022-10-10T08:07:59;7.30;;;2.43;;
9904;SDS011;4991;43.566;27.820;2022-10-10T08:10:24;7.63;;;2.60;;
9904;SDS011;4991;43.566;27.820;2022-10-10T08:12:52;3.43;;;1.93;;
9904;SDS011;4991;43.566;27.820;2022-10-10T08:15:18;6.77;;;2.33;;
9904;SDS011;4991;43.566;27.820;2022-10-10T08:17:44;4.93;;;3.07;;
9904;SDS011;4991;43.566;27.820;2022-10-10T08:20:09;4.40;;;2.33;;
9904;SDS011;4991;43.566;27.820;2022-10-10T08:22:35;4.87;;;2.30;;
9904;SDS011;4991;43.566;27.820;2022-10-10T08:25:01;2.80;;;2.10;;
9904;SDS011;4991;43.566;27.820;2022-10-10T08:27:26;3.77;;;2.33;;
9904;SDS011;4991;43.566;27.820;2022-10-10T08:29:52;6.10;;;2.70;;
9904;SDS011;4991;43.566;27.820;2022-10-10T08:32:18;3.70;;;1.90;;
9904;SDS011;4991;43.566;27.820;2022-10-10T08:34:43;4.40;;;2.07;;
9904;SDS011;4991;43.566;27.820;2022-10-10T08:37:09;4.20;;;1.90;;
9904;SDS011;4991;43.566;27.820;2022-10-10T08:39:35;3.00;;;1.97;;
9904;SDS011;4991;43.566;27.820;2022-10-10T08:42:00;7.33;;;2.13;;
9904;SDS011;4991;43.566;27.820;2022-10-10T08:44:29;3.43;;;2.10;;
9904;SDS011;4991;43.566;27.820;2022-10-10T08:50:11;4.77;;;3.00;;
9904;SDS011;4991;43.566;27.820;2022-10-10T08:55:46;3.37;;;2.00;;
9904;SDS011;4991;43.566;27.820;2022-10-10T09:00:59;6.57;;;2.73;;
9904;SDS011;4991;43.566;27.820;2022-10-10T09:23:04;5.20;;;2.27;;
9904;SDS011;4991;43.566;27.820;2022-10-10T09:25:34;5.97;;;2.33;;
9904;SDS011;4991;43.566;27.820;2022-10-10T09:28:10;3.80;;;2.25;;
9904;SDS011;4991;43.566;27.820;2022-10-10T09:30:58;4.38;;;2.00;;
9904;SDS011;4991;43.566;27.820;2022-10-10T09:35:52;3.45;;;2.00;;
9904;SDS011;4991;43.566;27.820;2022-10-10T09:41:46;3.00;;;2.20;;
9904;SDS011;4991;43.566;27.820;2022-10-10T09:44:00;3.22;;;2.38;;
9904;SDS011;4991;43.566;27.820;2022-10-10T09:46:30;2.92;;;2.10;;
9904;SDS011;4991;43.566;27.820;2022-10-10T09:48:55;10.27;;;3.33;;
9904;SDS011;4991;43.566;27.820;2022-10-10T09:51:21;7.25;;;2.30;;
9904;SDS011;4991;43.566;27.820;2022-10-10T09:53:47;3.50;;;1.90;;
9904;SDS011;4991;43.566;27.820;2022-10-10T09:56:18;3.80;;;2.25;;
9904;SDS011;4991;43.566;27.820;2022-10-10T09:58:47;5.72;;;2.60;;
9904;SDS011;4991;43.566;27.820;2022-10-10T10:01:20;3.30;;;2.95;;
9904;SDS011;4991;43.566;27.820;2022-10-10T10:06:50;2.92;;;1.95;;
9904;SDS011;4991;43.566;27.820;2022-10-10T10:09:16;4.68;;;2.33;;
9904;SDS011;4991;43.566;27.820;2022-10-10T10:11:45;4.78;;;2.30;;
9904;SDS011;4991;43.566;27.820;2022-10-10T10:14:21;4.47;;;2.92;;
9904;SDS011;4991;43.566;27.820;2022-10-10T10:16:50;2.92;;;2.25;;
9904;SDS011;4991;43.566;27.820;2022-10-10T10:19:31;6.25;;;2.58;;
9904;SDS011;4991;43.566;27.820;2022-10-10T10:22:22;4.50;;;2.90;;
9904;SDS011;4991;43.566;27.820;2022-10-10T10:24:56;2.80;;;2.40;;
9904;SDS011;4991;43.566;27.820;2022-10-10T10:27:23;3.33;;;2.55;;
9904;SDS011;4991;43.566;27.820;2022-10-10T10:29:54;4.63;;;2.70;;
9904;SDS011;4991;43.566;27.820;2022-10-10T10:32:36;3.47;;;2.80;;
9904;SDS011;4991;43.566;27.820;2022-10-10T10:35:23;6.93;;;2.90;;
9904;SDS011;4991;43.566;27.820;2022-10-10T10:37:58;8.80;;;2.65;;
9904;SDS011;4991;43.566;27.820;2022-10-10T10:43:45;9.27;;;3.03;;
9904;SDS011;4991;43.566;27.820;2022-10-10T10:46:09;7.93;;;3.55;;
9904;SDS011;4991;43.566;27.820;2022-10-10T10:48:44;3.60;;;2.72;;
9904;SDS011;4991;43.566;27.820;2022-10-10T10:56:58;5.43;;;2.35;;
9904;SDS011;4991;43.566;27.820;2022-10-10T10:59:35;4.57;;;2.30;;
9904;SDS011;4991;43.566;27.820;2022-10-10T11:02:37;4.85;;;2.97;;
9904;SDS011;4991;43.566;27.820;2022-10-10T11:10:37;3.00;;;2.42;;
9904;SDS011;4991;43.566;27.820;2022-10-10T11:13:18;4.65;;;2.65;;
9904;SDS011;4991;43.566;27.820;2022-10-10T11:16:08;10.82;;;3.33;;
9904;SDS011;4991;43.566;27.820;2022-10-10T11:18:40;6.18;;;3.20;;
9904;SDS011;4991;43.566;27.820;2022-10-10T11:21:22;4.45;;;2.33;;
9904;SDS011;4991;43.566;27.820;2022-10-10T11:24:01;3.92;;;2.42;;
9904;SDS011;4991;43.566;27.820;2022-10-10T11:26:34;10.55;;;2.90;;
9904;SDS011;4991;43.566;27.820;2022-10-10T11:31:32;5.55;;;3.58;;
9904;SDS011;4991;43.566;27.820;2022-10-10T11:34:11;3.53;;;2.50;;
9904;SDS011;4991;43.566;27.820;2022-10-10T11:36:49;3.45;;;2.70;;
9904;SDS011;4991;43.566;27.820;2022-10-10T11:48:14;3.33;;;2.70;;
9904;SDS011;4991;43.566;27.820;2022-10-10T11:50:29;8.88;;;2.83;;
9904;SDS011;4991;43.566;27.820;2022-10-10T11:55:35;7.65;;;3.60;;
9904;SDS011;4991;43.566;27.820;2022-10-10T12:03:36;5.60;;;2.80;;
9904;SDS011;4991;43.566;27.820;2022-10-10T12:06:07;3.05;;;2.58;;
9904;SDS011;4991;43.566;27.820;2022-10-10T12:09:33;5.97;;;3.03;;
9904;SDS011;4991;43.566;27.820;2022-10-10T12:11:51;5.30;;;2.53;;
9904;SDS011;4991;43.566;27.820;2022-10-10T12:14:25;9.02;;;3.25;;
9904;SDS011;4991;43.566;27.820;2022-10-10T12:16:54;20.95;;;13.45;;
9904;SDS011;4991;43.566;27.820;2022-10-10T12:19:21;14.43;;;4.28;;
9904;SDS011;4991;43.566;27.820;2022-10-10T12:21:56;26.55;;;22.08;;
9904;SDS011;4991;43.566;27.820;2022-10-10T12:24:31;8.82;;;7.63;;
9904;SDS011;4991;43.566;27.820;2022-10-10T12:29:41;4.38;;;2.60;;
9904;SDS011;4991;43.566;27.820;2022-10-10T12:35:28;5.85;;;3.03;;
9904;SDS011;4991;43.566;27.820;2022-10-10T12:40:29;17.83;;;4.43;;
9904;SDS011;4991;43.566;27.820;2022-10-10T12:47:54;6.60;;;3.20;;
9904;SDS011;4991;43.566;27.820;2022-10-10T12:50:22;5.18;;;3.20;;
9904;SDS011;4991;43.566;27.820;2022-10-10T12:53:00;5.38;;;2.63;;
9904;SDS011;4991;43.566;27.820;2022-10-10T12:55:29;4.65;;;2.78;;
9904;SDS011;4991;43.566;27.820;2022-10-10T12:58:06;9.80;;;3.65;;
9904;SDS011;4991;43.566;27.820;2022-10-10T13:00:39;4.57;;;3.10;;
9904;SDS011;4991;43.566;27.820;2022-10-10T13:03:17;6.55;;;2.67;;
9904;SDS011;4991;43.566;27.820;2022-10-10T13:05:46;10.07;;;3.42;;
9904;SDS011;4991;43.566;27.820;2022-10-10T13:08:16;7.30;;;3.30;;
9904;SDS011;4991;43.566;27.820;2022-10-10T13:13:32;9.38;;;3.17;;
9904;SDS011;4991;43.566;27.820;2022-10-10T13:15:58;5.85;;;3.47;;
9904;SDS011;4991;43.566;27.820;2022-10-10T13:18:38;8.30;;;3.75;;
9904;SDS011;4991;43.566;27.820;2022-10-10T13:21:09;4.20;;;2.97;;
9904;SDS011;4991;43.566;27.820;2022-10-10T13:23:45;7.90;;;3.22;;
9904;SDS011;4991;43.566;27.820;2022-10-10T13:26:22;4.50;;;3.17;;
9904;SDS011;4991;43.566;27.820;2022-10-10T13:28:55;4.85;;;3.20;;
9904;SDS011;4991;43.566;27.820;2022-10-10T13:31:26;4.53;;;2.90;;
9904;SDS011;4991;43.566;27.820;2022-10-10T13:34:03;9.15;;;3.65;;
9904;SDS011;4991;43.566;27.820;2022-10-10T13:36:30;6.13;;;3.35;;
9904;SDS011;4991;43.566;27.820;2022-10-10T13:38:57;13.50;;;4.53;;
9904;SDS011;4991;43.566;27.820;2022-10-10T13:41:25;12.98;;;4.50;;
9904;SDS011;4991;43.566;27.820;2022-10-10T13:43:52;9.20;;;3.72;;
9904;SDS011;4991;43.566;27.820;2022-10-10T13:46:18;7.28;;;3.65;;
9904;SDS011;4991;43.566;27.820;2022-10-10T13:48:46;11.85;;;4.07;;
9904;SDS011;4991;43.566;27.820;2022-10-10T13:51:13;5.80;;;3.90;;
9904;SDS011;4991;43.566;27.820;2022-10-10T14:04:20;8.25;;;4.28;;
9904;SDS011;4991;43.566;27.820;2022-10-10T14:06:57;4.63;;;3.58;;
9904;SDS011;4991;43.566;27.820;2022-10-10T14:12:07;6.85;;;3.40;;
9904;SDS011;4991;43.566;27.820;2022-10-10T14:14:45;10.48;;;4.10;;
9904;SDS011;4991;43.566;27.820;2022-10-10T14:17:13;8.32;;;3.47;;
9904;SDS011;4991;43.566;27.820;2022-10-10T14:19:40;12.82;;;4.90;;
9904;SDS011;4991;43.566;27.820;2022-10-10T14:22:06;10.80;;;4.60;;
9904;SDS011;4991;43.566;27.820;2022-10-10T14:24:32;7.10;;;2.83;;
9904;SDS011;4991;43.566;27.820;2022-10-10T14:27:03;9.63;;;3.47;;
9904;SDS011;4991;43.566;27.820;2022-10-10T14:29:32;9.55;;;3.40;;
9904;SDS011;4991;43.566;27.820;2022-10-10T14:31:58;15.30;;;5.70;;
9904;SDS011;4991;43.566;27.820;2022-10-10T14:34:23;16.42;;;5.07;;
9904;SDS011;4991;43.566;27.820;2022-10-10T14:36:49;13.65;;;4.97;;
9904;SDS011;4991;43.566;27.820;2022-10-10T14:39:15;7.53;;;3.47;;
9904;SDS011;4991;43.566;27.820;2022-10-10T14:41:42;12.70;;;3.75;;
9904;SDS011;4991;43.566;27.820;2022-10-10T14:44:08;14.87;;;4.50;;
9904;SDS011;4991;43.566;27.820;2022-10-10T14:46:35;10.60;;;4.10;;
9904;SDS011;4991;43.566;27.820;2022-10-10T14:49:01;6.47;;;3.73;;
9904;SDS011;4991;43.566;27.820;2022-10-10T14:51:26;11.67;;;4.77;;
9904;SDS011;4991;43.566;27.820;2022-10-10T14:53:52;11.17;;;4.23;;
9904;SDS011;4991;43.566;27.820;2022-10-10T14:56:18;21.07;;;5.10;;
9904;SDS011;4991;43.566;27.820;2022-10-10T14:58:43;11.33;;;4.10;;
9904;SDS011;4991;43.566;27.820;2022-10-10T15:01:09;15.87;;;5.40;;
9904;SDS011;4991;43.566;27.820;2022-10-10T15:03:35;14.57;;;5.13;;
9904;SDS011;4991;43.566;27.820;2022-10-10T15:06:00;17.10;;;7.43;;
9904;SDS011;4991;43.566;27.820;2022-10-10T15:08:26;21.77;;;5.30;;
9904;SDS011;4991;43.566;27.820;2022-10-10T15:10:52;15.37;;;6.73;;
9904;SDS011;4991;43.566;27.820;2022-10-10T15:13:17;17.87;;;10.07;;
9904;SDS011;4991;43.566;27.820;2022-10-10T15:15:45;19.07;;;6.00;;
9904;SDS011;4991;43.566;27.820;2022-10-10T15:18:11;23.57;;;7.17;;
9904;SDS011;4991;43.566;27.820;2022-10-10T15:20:38;17.50;;;7.20;;
9904;SDS011;4991;43.566;27.820;2022-10-10T15:23:04;13.93;;;6.10;;
9904;SDS011;4991;43.566;27.820;2022-10-10T15:25:31;12.83;;;6.17;;
9904;SDS011;4991;43.566;27.820;2022-10-10T15:27:57;19.13;;;7.60;;
9904;SDS011;4991;43.566;27.820;2022-10-10T15:30:22;18.67;;;5.33;;
9904;SDS011;4991;43.566;27.820;2022-10-10T15:32:48;10.00;;;4.90;;
9904;SDS011;4991;43.566;27.820;2022-10-10T15:35:15;9.50;;;4.40;;
9904;SDS011;4991;43.566;27.820;2022-10-10T15:37:44;10.03;;;4.17;;
9904;SDS011;4991;43.566;27.820;2022-10-10T15:40:11;11.17;;;3.67;;
9904;SDS011;4991;43.566;27.820;2022-10-10T15:42:39;8.73;;;4.10;;
9904;SDS011;4991;43.566;27.820;2022-10-10T15:45:04;7.63;;;4.17;;
9904;SDS011;4991;43.566;27.820;2022-10-10T15:47:30;9.90;;;4.43;;
9904;SDS011;4991;43.566;27.820;2022-10-10T15:49:56;28.90;;;6.57;;
9904;SDS011;4991;43.566;27.820;2022-10-10T15:52:22;9.27;;;4.07;;
9904;SDS011;4991;43.566;27.820;2022-10-10T15:54:49;7.30;;;4.73;;
9904;SDS011;4991;43.566;27.820;2022-10-10T15:57:15;15.63;;;4.70;;
9904;SDS011;4991;43.566;27.820;2022-10-10T15:59:41;5.80;;;4.37;;
9904;SDS011;4991;43.566;27.820;2022-10-10T16:02:08;8.67;;;4.50;;
9904;SDS011;4991;43.566;27.820;2022-10-10T16:04:35;7.97;;;4.07;;
9904;SDS011;4991;43.566;27.820;2022-10-10T16:07:01;6.37;;;4.53;;
9904;SDS011;4991;43.566;27.820;2022-10-10T16:09:27;7.03;;;4.30;;
9904;SDS011;4991;43.566;27.820;2022-10-10T16:12:01;6.50;;;3.93;;
9904;SDS011;4991;43.566;27.820;2022-10-10T16:14:27;10.93;;;4.53;;
9904;SDS011;4991;43.566;27.820;2022-10-10T16:16:52;12.30;;;4.40;;
9904;SDS011;4991;43.566;27.820;2022-10-10T16:19:18;6.57;;;4.10;;
9904;SDS011;4991;43.566;27.820;2022-10-10T16:21:44;9.77;;;4.13;;
9904;SDS011;4991;43.566;27.820;2022-10-10T16:24:10;15.07;;;3.90;;
9904;SDS011;4991;43.566;27.820;2022-10-10T16:26:36;8.93;;;4.00;;
9904;SDS011;4991;43.566;27.820;2022-10-10T16:29:02;5.87;;;3.83;;
9904;SDS011;4991;43.566;27.820;2022-10-10T16:31:30;9.53;;;3.87;;
9904;SDS011;4991;43.566;27.820;2022-10-10T16:33:56;6.37;;;3.40;;
9904;SDS011;4991;43.566;27.820;2022-10-10T16:36:25;7.93;;;3.70;;
9904;SDS011;4991;43.566;27.820;2022-10-10T16:38:53;10.80;;;4.17;;
9904;SDS011;4991;43.566;27.820;2022-10-10T17:00:23;3.97;;;3.53;;
9904;SDS011;4991;43.566;27.820;2022-10-10T17:02:49;9.20;;;4.20;;
9904;SDS011;4991;43.566;27.820;2022-10-10T17:05:15;6.47;;;3.50;;
9904;SDS011;4991;43.566;27.820;2022-10-10T17:07:41;7.33;;;3.53;;
9904;SDS011;4991;43.566;27.820;2022-10-10T17:10:06;6.40;;;3.60;;
9904;SDS011;4991;43.566;27.820;2022-10-10T17:12:32;8.13;;;4.10;;
9904;SDS011;4991;43.566;27.820;2022-10-10T17:14:58;13.33;;;4.77;;
9904;SDS011;4991;43.566;27.820;2022-10-10T17:17:24;7.13;;;4.87;;
9904;SDS011;4991;43.566;27.820;2022-10-10T17:19:49;6.50;;;5.03;;